GEC8414 VABB-VOHS
Flight info
| Callsign | GEC8414 |
|---|---|
| Flight time | 0h 51m |
| Altitude | 41000 |
| Route | VEVAK2A PPN W28 PONIP NAMSA8 |
| Aircraft | MD11/H-SDE1E2E3FGHIJ2J3J4J5M1RWXY/LB1D1 |
Departure
| Time | 2026-05-05 03:19 |
|---|---|
| Airport | Chhatrapati Shivaji Maharaj International Airport (VABB) |
Arrival
| Time | 2026-05-05 04:11 |
|---|---|
| Airport | Rajiv Gandhi International Airport (VOHS) |
| Time | Latitude | Longitude | Altitude | Speed | Heading |
|---|---|---|---|---|---|
| 2026-05-05 02:59 | 19.09283 | 72.86841 | 37 ft | 0 kts | 223° |
| 2026-05-05 03:11 | 19.09284 | 72.86841 | 37 ft | 0 kts | 223° |
| 2026-05-05 03:11 | 19.09294 | 72.86851 | 37 ft | 2 kts | 223° |
| 2026-05-05 03:11 | 19.09304 | 72.86861 | 38 ft | 0 kts | 223° |
| 2026-05-05 03:11 | 19.09312 | 72.86868 | 38 ft | 2 kts | 214° |
| 2026-05-05 03:12 | 19.09325 | 72.86875 | 38 ft | 2 kts | 199° |
| 2026-05-05 03:12 | 19.09339 | 72.86879 | 38 ft | 2 kts | 185° |
| 2026-05-05 03:12 | 19.09354 | 72.86879 | 39 ft | 2 kts | 171° |
| 2026-05-05 03:12 | 19.09369 | 72.86875 | 39 ft | 2 kts | 157° |
| 2026-05-05 03:13 | 19.09381 | 72.86867 | 39 ft | 2 kts | 143° |
| 2026-05-05 03:13 | 19.09388 | 72.86861 | 39 ft | 1 kts | 135° |
| 2026-05-05 03:13 | 19.09390 | 72.86860 | 39 ft | 0 kts | 135° |
| 2026-05-05 03:15 | 19.09381 | 72.86868 | 39 ft | 5 kts | 135° |
| 2026-05-05 03:15 | 19.09332 | 72.86919 | 38 ft | 14 kts | 136° |
| 2026-05-05 03:15 | 19.09235 | 72.87015 | 36 ft | 22 kts | 130° |
| 2026-05-05 03:16 | 19.09233 | 72.87181 | 36 ft | 24 kts | 83° |
| 2026-05-05 03:16 | 19.09177 | 72.87257 | 35 ft | 12 kts | 182° |
| 2026-05-05 03:16 | 19.09090 | 72.87269 | 34 ft | 7 kts | 157° |
| 2026-05-05 03:16 | 19.09058 | 72.87332 | 33 ft | 13 kts | 100° |
| 2026-05-05 03:17 | 19.09055 | 72.87450 | 33 ft | 19 kts | 89° |
| 2026-05-05 03:17 | 19.09055 | 72.87620 | 33 ft | 24 kts | 89° |
| 2026-05-05 03:17 | 19.09058 | 72.87809 | 35 ft | 25 kts | 88° |
| 2026-05-05 03:17 | 19.09060 | 72.87974 | 38 ft | 21 kts | 89° |
| 2026-05-05 03:18 | 19.09025 | 72.88049 | 38 ft | 11 kts | 163° |
| 2026-05-05 03:18 | 19.08923 | 72.88052 | 38 ft | 10 kts | 188° |
| 2026-05-05 03:18 | 19.08889 | 72.87987 | 38 ft | 10 kts | 266° |
| 2026-05-05 03:18 | 19.08885 | 72.87899 | 36 ft | 12 kts | 271° |
| 2026-05-05 03:19 | 19.08876 | 72.87460 | 32 ft | 109 kts | 271° |
| 2026-05-05 03:19 | 19.08861 | 72.86316 | 239 ft | 187 kts | 268° |
| 2026-05-05 03:19 | 19.08876 | 72.85004 | 1516 ft | 186 kts | 270° |
| 2026-05-05 03:20 | 19.08913 | 72.83672 | 2867 ft | 189 kts | 270° |
| 2026-05-05 03:20 | 19.08947 | 72.82215 | 3622 ft | 227 kts | 271° |
| 2026-05-05 03:20 | 19.08983 | 72.80373 | 4102 ft | 273 kts | 271° |
| 2026-05-05 03:20 | 19.09016 | 72.78316 | 5562 ft | 288 kts | 271° |
| 2026-05-05 03:21 | 19.08615 | 72.76398 | 7639 ft | 282 kts | 241° |
| 2026-05-05 03:21 | 19.07286 | 72.74893 | 9145 ft | 299 kts | 212° |
| 2026-05-05 03:21 | 19.05301 | 72.74265 | 10524 ft | 318 kts | 184° |
| 2026-05-05 03:21 | 19.03013 | 72.74670 | 11388 ft | 355 kts | 156° |
| 2026-05-05 03:22 | 19.00974 | 72.76218 | 12350 ft | 383 kts | 131° |
| 2026-05-05 03:22 | 18.99683 | 72.78687 | 13757 ft | 395 kts | 105° |
| 2026-05-05 03:22 | 18.99266 | 72.81540 | 15310 ft | 401 kts | 92° |
| 2026-05-05 03:22 | 18.99220 | 72.84445 | 16752 ft | 409 kts | 89° |
| 2026-05-05 03:23 | 18.99078 | 72.87463 | 18114 ft | 420 kts | 95° |
| 2026-05-05 03:23 | 18.98583 | 72.90510 | 19407 ft | 432 kts | 102° |
| 2026-05-05 03:23 | 18.97777 | 72.93597 | 20707 ft | 442 kts | 107° |
| 2026-05-05 03:23 | 18.96771 | 72.96700 | 21938 ft | 454 kts | 109° |
| 2026-05-05 03:24 | 18.95650 | 72.99793 | 23148 ft | 464 kts | 111° |
| 2026-05-05 03:24 | 18.94434 | 73.02958 | 24338 ft | 473 kts | 111° |
| 2026-05-05 03:24 | 18.93148 | 73.06204 | 25539 ft | 481 kts | 112° |
| 2026-05-05 03:24 | 18.91846 | 73.09445 | 26657 ft | 491 kts | 112° |
| 2026-05-05 03:25 | 18.90502 | 73.12772 | 27736 ft | 500 kts | 112° |
| 2026-05-05 03:25 | 18.89128 | 73.16167 | 28870 ft | 509 kts | 112° |
| 2026-05-05 03:25 | 18.87737 | 73.19613 | 30061 ft | 518 kts | 112° |
| 2026-05-05 03:25 | 18.86321 | 73.23119 | 31229 ft | 527 kts | 112° |
| 2026-05-05 03:26 | 18.84882 | 73.26679 | 32369 ft | 535 kts | 113° |
| 2026-05-05 03:26 | 18.83418 | 73.30287 | 33894 ft | 535 kts | 113° |
| 2026-05-05 03:26 | 18.81971 | 73.33848 | 35879 ft | 525 kts | 113° |
| 2026-05-05 03:26 | 18.80550 | 73.37342 | 37660 ft | 518 kts | 113° |
| 2026-05-05 03:27 | 18.79163 | 73.40752 | 39220 ft | 513 kts | 113° |
| 2026-05-05 03:27 | 18.77753 | 73.44222 | 40505 ft | 513 kts | 113° |
| 2026-05-05 03:27 | 18.76358 | 73.47656 | 40610 ft | 512 kts | 113° |
| 2026-05-05 03:27 | 18.74982 | 73.51047 | 40934 ft | 498 kts | 113° |
| 2026-05-05 03:28 | 18.72279 | 73.57707 | 40940 ft | 489 kts | 113° |
| 2026-05-05 03:28 | 18.69567 | 73.64256 | 41021 ft | 494 kts | 114° |
| 2026-05-05 03:29 | 18.66819 | 73.70907 | 40973 ft | 496 kts | 114° |
| 2026-05-05 03:29 | 18.64108 | 73.77520 | 40966 ft | 492 kts | 114° |
| 2026-05-05 03:30 | 18.61368 | 73.84156 | 41009 ft | 495 kts | 114° |
| 2026-05-05 03:30 | 18.58636 | 73.90802 | 40987 ft | 493 kts | 114° |
| 2026-05-05 03:31 | 18.55813 | 73.97347 | 40993 ft | 493 kts | 115° |
| 2026-05-05 03:31 | 18.52915 | 74.03889 | 41005 ft | 494 kts | 115° |
| 2026-05-05 03:32 | 18.50079 | 74.10432 | 40987 ft | 492 kts | 115° |
| 2026-05-05 03:32 | 18.47248 | 74.16928 | 40998 ft | 492 kts | 115° |
| 2026-05-05 03:33 | 18.44389 | 74.23475 | 41001 ft | 492 kts | 115° |
| 2026-05-05 03:33 | 18.41553 | 74.30006 | 40997 ft | 491 kts | 115° |
| 2026-05-05 03:34 | 18.38708 | 74.36549 | 40989 ft | 491 kts | 115° |
| 2026-05-05 03:34 | 18.35887 | 74.43039 | 40994 ft | 491 kts | 115° |
| 2026-05-05 03:35 | 18.33061 | 74.49557 | 40987 ft | 490 kts | 115° |
| 2026-05-05 03:35 | 18.30238 | 74.56064 | 40977 ft | 489 kts | 115° |
| 2026-05-05 03:36 | 18.27433 | 74.62535 | 40985 ft | 490 kts | 115° |
| 2026-05-05 03:36 | 18.24610 | 74.69059 | 40969 ft | 488 kts | 115° |
| 2026-05-05 03:37 | 18.21802 | 74.75513 | 40958 ft | 485 kts | 116° |
| 2026-05-05 03:37 | 18.18959 | 74.81978 | 40973 ft | 487 kts | 115° |
| 2026-05-05 03:38 | 18.16156 | 74.88409 | 40972 ft | 486 kts | 115° |
| 2026-05-05 03:38 | 18.13344 | 74.94862 | 40948 ft | 484 kts | 115° |
| 2026-05-05 03:39 | 18.10549 | 75.01258 | 40963 ft | 484 kts | 115° |
| 2026-05-05 03:39 | 18.07757 | 75.07671 | 40963 ft | 485 kts | 115° |
| 2026-05-05 03:40 | 18.04954 | 75.14109 | 40956 ft | 484 kts | 115° |
| 2026-05-05 03:40 | 18.02167 | 75.20514 | 40954 ft | 483 kts | 115° |
| 2026-05-05 03:41 | 17.99385 | 75.26915 | 40956 ft | 484 kts | 115° |
| 2026-05-05 03:41 | 17.96592 | 75.33344 | 40969 ft | 484 kts | 115° |
| 2026-05-05 03:42 | 17.93806 | 75.39762 | 40948 ft | 483 kts | 115° |
| 2026-05-05 03:42 | 17.91044 | 75.46129 | 40961 ft | 484 kts | 115° |
| 2026-05-05 03:43 | 17.88253 | 75.52548 | 40956 ft | 484 kts | 116° |
| 2026-05-05 03:43 | 17.85412 | 75.58946 | 40950 ft | 483 kts | 116° |
| 2026-05-05 03:44 | 17.82609 | 75.65318 | 40961 ft | 484 kts | 116° |
| 2026-05-05 03:44 | 17.79794 | 75.71731 | 40947 ft | 483 kts | 116° |
| 2026-05-05 03:45 | 17.76985 | 75.78098 | 40945 ft | 483 kts | 116° |
| 2026-05-05 03:45 | 17.74180 | 75.84486 | 40949 ft | 484 kts | 116° |
| 2026-05-05 03:46 | 17.71374 | 75.90879 | 40949 ft | 484 kts | 116° |
| 2026-05-05 03:46 | 17.68588 | 75.97356 | 40388 ft | 493 kts | 113° |
| 2026-05-05 03:47 | 17.67410 | 76.00694 | 39786 ft | 495 kts | 109° |
| 2026-05-05 03:47 | 17.66455 | 76.04190 | 39015 ft | 499 kts | 105° |
| 2026-05-05 03:47 | 17.65631 | 76.07717 | 38244 ft | 502 kts | 104° |
| 2026-05-05 03:47 | 17.64829 | 76.11283 | 37567 ft | 505 kts | 104° |
| 2026-05-05 03:48 | 17.64017 | 76.14810 | 36974 ft | 506 kts | 104° |
| 2026-05-05 03:48 | 17.63178 | 76.18393 | 36397 ft | 507 kts | 104° |
| 2026-05-05 03:48 | 17.62328 | 76.21996 | 35907 ft | 506 kts | 104° |
| 2026-05-05 03:48 | 17.61484 | 76.25569 | 35192 ft | 510 kts | 104° |
| 2026-05-05 03:49 | 17.60634 | 76.29164 | 34545 ft | 512 kts | 104° |
| 2026-05-05 03:49 | 17.59785 | 76.32770 | 33904 ft | 514 kts | 104° |
| 2026-05-05 03:49 | 17.58934 | 76.36389 | 33239 ft | 516 kts | 104° |
| 2026-05-05 03:49 | 17.58073 | 76.40063 | 32575 ft | 518 kts | 104° |
| 2026-05-05 03:50 | 17.57216 | 76.43741 | 31968 ft | 519 kts | 104° |
| 2026-05-05 03:50 | 17.56366 | 76.47407 | 31363 ft | 521 kts | 104° |
| 2026-05-05 03:50 | 17.55512 | 76.51090 | 30745 ft | 522 kts | 104° |
| 2026-05-05 03:50 | 17.54666 | 76.54732 | 30127 ft | 524 kts | 104° |
| 2026-05-05 03:51 | 17.53804 | 76.58437 | 29508 ft | 524 kts | 104° |
| 2026-05-05 03:51 | 17.52936 | 76.62176 | 28889 ft | 526 kts | 104° |
| 2026-05-05 03:51 | 17.52082 | 76.65870 | 28289 ft | 531 kts | 104° |
| 2026-05-05 03:51 | 17.51205 | 76.69659 | 27704 ft | 537 kts | 104° |
| 2026-05-05 03:52 | 17.50328 | 76.73453 | 27098 ft | 540 kts | 104° |
| 2026-05-05 03:52 | 17.49449 | 76.77261 | 26477 ft | 540 kts | 105° |
| 2026-05-05 03:52 | 17.48570 | 76.81069 | 25838 ft | 539 kts | 105° |
| 2026-05-05 03:52 | 17.47697 | 76.84852 | 25206 ft | 537 kts | 105° |
| 2026-05-05 03:53 | 17.46815 | 76.88676 | 24567 ft | 534 kts | 105° |
| 2026-05-05 03:53 | 17.45951 | 76.92403 | 23944 ft | 531 kts | 105° |
| 2026-05-05 03:53 | 17.45065 | 76.96124 | 23316 ft | 528 kts | 105° |
| 2026-05-05 03:53 | 17.44160 | 76.99859 | 22667 ft | 525 kts | 105° |
| 2026-05-05 03:54 | 17.43278 | 77.03508 | 22045 ft | 522 kts | 105° |
| 2026-05-05 03:54 | 17.42396 | 77.07195 | 21453 ft | 518 kts | 105° |
| 2026-05-05 03:54 | 17.41538 | 77.10820 | 20696 ft | 506 kts | 105° |
| 2026-05-05 03:54 | 17.40724 | 77.14270 | 20184 ft | 485 kts | 105° |
| 2026-05-05 03:55 | 17.39914 | 77.17681 | 19629 ft | 480 kts | 104° |
| 2026-05-05 03:55 | 17.39104 | 77.21068 | 19076 ft | 478 kts | 104° |
| 2026-05-05 03:55 | 17.38310 | 77.24390 | 18528 ft | 475 kts | 104° |
| 2026-05-05 03:55 | 17.37514 | 77.27741 | 17980 ft | 472 kts | 104° |
| 2026-05-05 03:56 | 17.36734 | 77.31039 | 17439 ft | 469 kts | 104° |
| 2026-05-05 03:56 | 17.35956 | 77.34332 | 16891 ft | 464 kts | 103° |
| 2026-05-05 03:56 | 17.35179 | 77.37610 | 16338 ft | 458 kts | 103° |
| 2026-05-05 03:56 | 17.34424 | 77.40791 | 15797 ft | 448 kts | 103° |
| 2026-05-05 03:57 | 17.33681 | 77.43922 | 15249 ft | 436 kts | 103° |
| 2026-05-05 03:57 | 17.32970 | 77.46922 | 14697 ft | 424 kts | 103° |
| 2026-05-05 03:57 | 17.32264 | 77.49917 | 14199 ft | 428 kts | 103° |
| 2026-05-05 03:57 | 17.31552 | 77.52932 | 13714 ft | 426 kts | 103° |
| 2026-05-05 03:58 | 17.30849 | 77.55904 | 13240 ft | 421 kts | 103° |
| 2026-05-05 03:58 | 17.30149 | 77.58858 | 12770 ft | 420 kts | 102° |
| 2026-05-05 03:58 | 17.29444 | 77.61845 | 12318 ft | 419 kts | 102° |
| 2026-05-05 03:58 | 17.28751 | 77.64786 | 11895 ft | 415 kts | 102° |
| 2026-05-05 03:59 | 17.28065 | 77.67690 | 11466 ft | 411 kts | 103° |
| 2026-05-05 03:59 | 17.27402 | 77.70493 | 10979 ft | 383 kts | 103° |
| 2026-05-05 03:59 | 17.26824 | 77.73090 | 10526 ft | 352 kts | 101° |
| 2026-05-05 03:59 | 17.26291 | 77.75492 | 10099 ft | 323 kts | 110° |
| 2026-05-05 04:00 | 17.25641 | 77.77617 | 9879 ft | 299 kts | 104° |
| 2026-05-05 04:00 | 17.25154 | 77.79717 | 9836 ft | 298 kts | 101° |
| 2026-05-05 04:00 | 17.24803 | 77.81844 | 9635 ft | 295 kts | 90° |
| 2026-05-05 04:00 | 17.24746 | 77.83941 | 9428 ft | 291 kts | 91° |
| 2026-05-05 04:01 | 17.24630 | 77.86081 | 9202 ft | 291 kts | 92° |
| 2026-05-05 04:01 | 17.24499 | 77.88143 | 8890 ft | 283 kts | 92° |
| 2026-05-05 04:01 | 17.24365 | 77.90184 | 8615 ft | 275 kts | 92° |
| 2026-05-05 04:01 | 17.24239 | 77.92158 | 8375 ft | 269 kts | 92° |
| 2026-05-05 04:02 | 17.24122 | 77.94078 | 8137 ft | 264 kts | 92° |
| 2026-05-05 04:02 | 17.24008 | 77.95985 | 7898 ft | 260 kts | 92° |
| 2026-05-05 04:02 | 17.23899 | 77.97849 | 7666 ft | 258 kts | 92° |
| 2026-05-05 04:02 | 17.23791 | 77.99720 | 7415 ft | 256 kts | 92° |
| 2026-05-05 04:03 | 17.23688 | 78.01554 | 7171 ft | 255 kts | 92° |
| 2026-05-05 04:03 | 17.23585 | 78.03392 | 6941 ft | 248 kts | 92° |
| 2026-05-05 04:03 | 17.23484 | 78.05163 | 6726 ft | 237 kts | 92° |
| 2026-05-05 04:03 | 17.23376 | 78.06853 | 6475 ft | 231 kts | 94° |
| 2026-05-05 04:04 | 17.23174 | 78.08491 | 6237 ft | 226 kts | 98° |
| 2026-05-05 04:04 | 17.22906 | 78.10094 | 6008 ft | 221 kts | 99° |
| 2026-05-05 04:04 | 17.22623 | 78.11639 | 5897 ft | 211 kts | 98° |
| 2026-05-05 04:04 | 17.22503 | 78.13115 | 5794 ft | 195 kts | 90° |
| 2026-05-05 04:05 | 17.22524 | 78.14470 | 5803 ft | 183 kts | 86° |
| 2026-05-05 04:05 | 17.22565 | 78.15833 | 5872 ft | 190 kts | 87° |
| 2026-05-05 04:05 | 17.22577 | 78.17217 | 5871 ft | 191 kts | 89° |
| 2026-05-05 04:05 | 17.22579 | 78.18613 | 5784 ft | 192 kts | 89° |
| 2026-05-05 04:06 | 17.22587 | 78.20001 | 5616 ft | 191 kts | 89° |
| 2026-05-05 04:06 | 17.22601 | 78.21384 | 5403 ft | 190 kts | 89° |
| 2026-05-05 04:06 | 17.22619 | 78.22750 | 5176 ft | 188 kts | 89° |
| 2026-05-05 04:06 | 17.22637 | 78.24110 | 4945 ft | 186 kts | 89° |
| 2026-05-05 04:07 | 17.22653 | 78.25465 | 4713 ft | 184 kts | 90° |
| 2026-05-05 04:07 | 17.22669 | 78.26783 | 4487 ft | 178 kts | 90° |
| 2026-05-05 04:07 | 17.22682 | 78.28042 | 4269 ft | 168 kts | 90° |
| 2026-05-05 04:07 | 17.22698 | 78.29232 | 4068 ft | 158 kts | 90° |
| 2026-05-05 04:08 | 17.22714 | 78.30353 | 3885 ft | 153 kts | 90° |
| 2026-05-05 04:08 | 17.22719 | 78.31456 | 3677 ft | 154 kts | 92° |
| 2026-05-05 04:08 | 17.22706 | 78.32575 | 3496 ft | 156 kts | 91° |
| 2026-05-05 04:08 | 17.22724 | 78.33701 | 3306 ft | 154 kts | 89° |
| 2026-05-05 04:09 | 17.22773 | 78.34792 | 3137 ft | 147 kts | 90° |
| 2026-05-05 04:09 | 17.22817 | 78.35852 | 2931 ft | 148 kts | 91° |
| 2026-05-05 04:09 | 17.22826 | 78.36951 | 2764 ft | 151 kts | 91° |
| 2026-05-05 04:09 | 17.22838 | 78.38038 | 2610 ft | 150 kts | 92° |
| 2026-05-05 04:10 | 17.22844 | 78.39114 | 2407 ft | 147 kts | 91° |
| 2026-05-05 04:10 | 17.22840 | 78.40203 | 2209 ft | 150 kts | 91° |
| 2026-05-05 04:10 | 17.22864 | 78.41286 | 2008 ft | 149 kts | 89° |
| 2026-05-05 04:10 | 17.22875 | 78.42327 | 1981 ft | 132 kts | 91° |
| 2026-05-05 04:11 | 17.22878 | 78.42785 | 1997 ft | 25 kts | 89° |
| 2026-05-05 04:11 | 17.22880 | 78.42988 | 2006 ft | 27 kts | 89° |
| 2026-05-05 04:11 | 17.22940 | 78.43031 | 2008 ft | 12 kts | 289° |
| 2026-05-05 04:11 | 17.22980 | 78.42928 | 2004 ft | 18 kts | 297° |
| 2026-05-05 04:12 | 17.23054 | 78.42792 | 1998 ft | 24 kts | 309° |
| 2026-05-05 04:12 | 17.23183 | 78.42730 | 1997 ft | 18 kts | 5° |
| 2026-05-05 04:12 | 17.23308 | 78.42723 | 1998 ft | 14 kts | 330° |
| 2026-05-05 04:12 | 17.23317 | 78.42641 | 1994 ft | 11 kts | 264° |
| 2026-05-05 04:13 | 17.23343 | 78.42600 | 1992 ft | 7 kts | 340° |
| 2026-05-05 04:13 | 17.23367 | 78.42592 | 1992 ft | 2 kts | 353° |
| 2026-05-05 04:13 | 17.23388 | 78.42592 | 1992 ft | 4 kts | 0° |
| 2026-05-05 04:13 | 17.23419 | 78.42591 | 1991 ft | 0 kts | 359° |
| 2026-05-05 04:14 | 17.23421 | 78.42591 | 1991 ft | 0 kts | 359° |